createdAt,value
2022-08-19T00:00:33.154Z,18.42
2022-08-19T00:01:39.071Z,19.35
2022-08-19T00:02:50.139Z,22.58
2022-08-19T00:03:53.680Z,19.05
2022-08-19T00:04:56.302Z,17.65
2022-08-19T00:06:00.360Z,17.75
2022-08-19T00:07:04.308Z,19.58
2022-08-19T00:08:06.492Z,20.55
2022-08-19T00:09:12.689Z,22.17
2022-08-19T00:10:16.689Z,24.75
2022-08-19T00:11:25.578Z,24.08
2022-08-19T00:12:28.646Z,21.73
2022-08-19T00:13:31.826Z,26.33
2022-08-19T00:14:34.105Z,27.23
2022-08-19T00:15:39.028Z,30.75
2022-08-19T00:16:42.797Z,28.13
2022-08-19T00:17:46.945Z,31.25
2022-08-19T00:18:49.483Z,28.45
2022-08-19T00:19:53.485Z,28.73
2022-08-19T00:20:55.742Z,27.50
2022-08-19T00:21:59.070Z,27.92
2022-08-19T00:23:01.214Z,30.30
2022-08-19T00:24:05.076Z,26.52
2022-08-19T00:25:08.139Z,36.30
2022-08-19T00:26:13.125Z,29.63
2022-08-19T00:27:26.111Z,34.03
2022-08-19T00:28:30.029Z,36.03
2022-08-19T00:29:32.726Z,35.55
2022-08-19T00:30:36.050Z,40.97
2022-08-19T00:31:40.091Z,34.13
2022-08-19T00:32:43.256Z,37.15
2022-08-19T00:33:45.415Z,40.15
2022-08-19T00:34:48.594Z,41.33
2022-08-19T00:35:56.095Z,41.60
2022-08-19T00:37:00.632Z,42.20
2022-08-19T00:38:02.853Z,47.60
2022-08-19T00:39:06.243Z,50.85
2022-08-19T00:40:08.940Z,42.38
2022-08-19T00:41:15.564Z,41.40
2022-08-19T00:42:18.580Z,39.00
2022-08-19T00:43:24.123Z,42.65
2022-08-19T00:44:28.801Z,40.80
2022-08-19T00:45:33.300Z,37.50
2022-08-19T00:46:43.169Z,36.45
2022-08-19T00:47:46.793Z,38.65
2022-08-19T00:48:48.966Z,37.75
2022-08-19T00:49:54.643Z,39.70
2022-08-19T00:50:57.809Z,35.83
2022-08-19T00:52:06.572Z,38.08
2022-08-19T00:53:09.061Z,38.70
2022-08-19T00:54:15.045Z,35.83
2022-08-19T00:55:21.778Z,38.60
2022-08-19T00:56:25.426Z,30.83
2022-08-19T00:57:32.848Z,36.28
2022-08-19T00:58:36.565Z,36.42
2022-08-19T00:59:56.312Z,36.38
2022-08-19T01:01:06.598Z,33.72
2022-08-19T01:02:10.366Z,33.53
2022-08-19T01:03:19.339Z,32.80
2022-08-19T01:04:21.516Z,36.03
2022-08-19T01:05:29.699Z,34.50
2022-08-19T01:06:33.557Z,28.58
2022-08-19T01:07:38.036Z,28.10
2022-08-19T01:08:40.557Z,30.85
2022-08-19T01:09:43.699Z,32.78
2022-08-19T01:10:49.559Z,30.08
2022-08-19T01:11:53.968Z,32.45
2022-08-19T01:12:57.145Z,32.40
2022-08-19T01:14:01.457Z,28.20
2022-08-19T01:15:04.535Z,25.92
2022-08-19T01:16:10.804Z,29.65
2022-08-19T01:17:16.167Z,30.27
2022-08-19T01:18:21.266Z,30.15
2022-08-19T01:19:29.173Z,32.22
2022-08-19T01:20:32.500Z,33.10
2022-08-19T01:21:45.639Z,28.38
2022-08-19T01:22:52.662Z,29.75
2022-08-19T01:23:55.227Z,28.50
2022-08-19T01:24:59.466Z,27.35
2022-08-19T01:26:02.010Z,34.05
2022-08-19T01:27:06.985Z,31.25
2022-08-19T01:28:18.809Z,26.55
2022-08-19T01:29:40.961Z,34.15
2022-08-19T01:30:44.620Z,34.20
2022-08-19T01:31:54.452Z,33.97
2022-08-19T01:32:57.542Z,35.42
2022-08-19T01:34:01.021Z,35.50
2022-08-19T01:35:05.347Z,35.38
2022-08-19T01:36:11.687Z,37.60
2022-08-19T01:37:14.915Z,37.17
2022-08-19T01:38:32.572Z,41.95
2022-08-19T01:39:35.394Z,39.08
2022-08-19T01:40:41.377Z,40.75
2022-08-19T01:41:43.727Z,45.00
2022-08-19T01:42:47.097Z,41.45
2022-08-19T01:44:17.412Z,39.13
2022-08-19T01:45:13.775Z,39.38
2022-08-19T01:46:15.879Z,44.90
2022-08-19T01:47:19.425Z,36.25
2022-08-19T01:48:21.799Z,38.20
2022-08-19T01:49:27.637Z,43.03
2022-08-19T01:50:30.985Z,36.10
2022-08-19T01:51:39.956Z,39.83
2022-08-19T01:52:44.473Z,42.83
2022-08-19T01:53:51.046Z,40.90
2022-08-19T01:54:53.219Z,40.10
2022-08-19T01:55:56.493Z,39.30
2022-08-19T01:57:04.161Z,39.05
2022-08-19T01:58:09.962Z,40.75
2022-08-19T01:59:16.170Z,38.25
2022-08-19T02:00:21.978Z,43.75
2022-08-19T02:01:25.235Z,44.38
2022-08-19T02:02:34.030Z,41.33
2022-08-19T02:03:37.212Z,41.15
2022-08-19T02:04:39.889Z,43.60
2022-08-19T02:05:44.085Z,36.97
2022-08-19T02:06:46.216Z,41.13
2022-08-19T02:07:49.880Z,43.30
2022-08-19T02:08:53.441Z,45.05
2022-08-19T02:10:00.784Z,48.15
2022-08-19T02:11:05.781Z,44.88
2022-08-19T02:12:09.882Z,43.83
2022-08-19T02:13:12.765Z,47.67
2022-08-19T02:14:16.253Z,43.25
2022-08-19T02:15:20.394Z,40.75
2022-08-19T02:16:24.526Z,44.33
2022-08-19T02:17:26.669Z,42.78
2022-08-19T02:18:29.938Z,45.25
2022-08-19T02:19:33.584Z,46.00
2022-08-19T02:20:37.688Z,50.25
2022-08-19T02:21:40.041Z,50.70
2022-08-19T02:22:43.699Z,44.05
2022-08-19T02:23:46.733Z,48.75
2022-08-19T02:24:51.226Z,53.63
2022-08-19T02:25:53.449Z,53.38
2022-08-19T02:26:56.608Z,51.78
2022-08-19T02:27:58.830Z,48.95
2022-08-19T02:29:02.361Z,52.63
2022-08-19T02:30:06.654Z,50.45
2022-08-19T02:31:12.551Z,49.25
2022-08-19T02:32:14.791Z,50.95
2022-08-19T02:33:18.647Z,49.70
2022-08-19T02:34:21.085Z,49.75
2022-08-19T02:35:24.308Z,51.80
2022-08-19T02:36:26.964Z,47.88
2022-08-19T02:37:47.326Z,50.97
2022-08-19T02:38:54.880Z,50.03
2022-08-19T02:39:59.462Z,55.20
2022-08-19T02:41:04.810Z,54.40
2022-08-19T02:42:07.225Z,54.83
2022-08-19T02:43:11.129Z,57.38
2022-08-19T02:44:30.284Z,61.95
2022-08-19T02:45:34.352Z,72.22
2022-08-19T02:46:37.636Z,63.60
2022-08-19T02:47:39.789Z,65.40
2022-08-19T02:48:43.020Z,71.55
2022-08-19T02:49:45.327Z,70.95
2022-08-19T02:50:53.208Z,72.07
2022-08-19T02:51:55.914Z,75.55
2022-08-19T02:52:59.106Z,73.35
2022-08-19T02:54:01.505Z,74.15
2022-08-19T02:55:07.452Z,77.43
2022-08-19T02:56:09.621Z,89.63
2022-08-19T02:57:12.998Z,81.68
2022-08-19T02:58:16.098Z,80.78
2022-08-19T02:59:21.122Z,81.13
2022-08-19T03:00:25.500Z,78.90
2022-08-19T03:01:32.603Z,86.65
2022-08-19T03:02:34.893Z,83.25
2022-08-19T03:03:38.338Z,81.72
2022-08-19T03:04:40.565Z,81.35
2022-08-19T03:05:48.229Z,78.15
2022-08-19T03:07:02.551Z,76.60
2022-08-19T03:08:15.088Z,74.63
2022-08-19T03:09:18.792Z,75.53
2022-08-19T03:10:23.950Z,77.03
2022-08-19T03:11:30.296Z,74.45
2022-08-19T03:12:32.647Z,71.72
2022-08-19T03:13:36.899Z,78.28
2022-08-19T03:14:39.216Z,70.70
2022-08-19T03:15:43.933Z,70.30
2022-08-19T03:16:48.410Z,73.18
2022-08-19T03:17:51.761Z,64.25
2022-08-19T03:18:55.117Z,58.67
2022-08-19T03:19:58.474Z,59.85
2022-08-19T03:21:01.392Z,66.20
2022-08-19T03:22:05.162Z,59.47
2022-08-19T03:23:07.395Z,61.05
2022-08-19T03:24:10.910Z,69.15
2022-08-19T03:25:13.165Z,70.82
2022-08-19T03:26:18.372Z,63.25
2022-08-19T03:27:20.616Z,61.55
2022-08-19T03:28:23.803Z,58.83
2022-08-19T03:29:30.166Z,56.97
2022-08-19T03:30:34.223Z,57.42
2022-08-19T03:31:45.077Z,52.25
2022-08-19T03:32:57.127Z,62.13
2022-08-19T03:33:59.640Z,52.85
2022-08-19T03:35:03.476Z,54.20
2022-08-19T03:36:10.420Z,55.05
2022-08-19T03:37:13.416Z,54.70
2022-08-19T03:38:16.705Z,56.75
2022-08-19T03:39:18.914Z,56.15
2022-08-19T03:40:22.247Z,59.65
2022-08-19T03:41:44.646Z,61.90
2022-08-19T03:42:49.635Z,59.05
2022-08-19T03:43:53.916Z,60.33
2022-08-19T03:44:57.178Z,57.00
2022-08-19T03:46:05.144Z,66.07
2022-08-19T03:47:08.431Z,60.88
2022-08-19T03:48:10.709Z,60.08
2022-08-19T03:49:14.208Z,65.07
2022-08-19T03:50:16.995Z,63.83
2022-08-19T03:51:30.890Z,63.58
2022-08-19T03:52:34.454Z,64.45
2022-08-19T03:53:37.046Z,65.43
2022-08-19T03:54:40.630Z,58.47
2022-08-19T03:55:42.822Z,67.70
2022-08-19T03:56:49.559Z,69.75
2022-08-19T03:57:52.834Z,67.65
2022-08-19T03:58:58.908Z,73.20
2022-08-19T04:00:13.031Z,72.20
2022-08-19T04:01:19.197Z,74.95
2022-08-19T04:02:22.969Z,75.13
2022-08-19T04:03:25.905Z,65.80
2022-08-19T04:04:29.825Z,71.70
2022-08-19T04:05:34.136Z,71.15
2022-08-19T04:06:39.709Z,82.82
2022-08-19T04:07:42.317Z,69.85
2022-08-19T04:08:47.549Z,74.13
2022-08-19T04:09:52.964Z,74.80
2022-08-19T04:10:55.181Z,74.65
2022-08-19T04:12:00.165Z,85.00
2022-08-19T04:13:02.468Z,84.13
2022-08-19T04:14:05.736Z,81.22
2022-08-19T04:15:09.906Z,76.35
2022-08-19T04:16:12.458Z,74.82
2022-08-19T04:17:15.686Z,81.07
2022-08-19T04:18:18.398Z,74.85
2022-08-19T04:19:22.227Z,80.38
2022-08-19T04:20:24.435Z,78.18
2022-08-19T04:21:29.005Z,72.30
2022-08-19T04:22:31.261Z,86.80
2022-08-19T04:23:34.780Z,81.57
2022-08-19T04:24:37.322Z,82.13
2022-08-19T04:25:41.826Z,80.50
2022-08-19T04:26:44.629Z,75.63
2022-08-19T04:27:49.553Z,78.50
2022-08-19T04:28:52.599Z,91.57
2022-08-19T04:29:56.164Z,71.45
2022-08-19T04:30:59.074Z,74.85
2022-08-19T04:32:09.279Z,73.38
2022-08-19T04:34:18.895Z,71.93
2022-08-19T04:35:24.801Z,83.82
2022-08-19T04:36:29.971Z,77.20
2022-08-19T04:37:35.443Z,87.57
2022-08-19T04:38:39.359Z,77.55
2022-08-19T04:40:02.368Z,69.55
2022-08-19T04:41:23.904Z,81.15
2022-08-19T04:42:41.076Z,79.05
2022-08-19T04:43:49.809Z,75.85
2022-08-19T04:44:52.003Z,83.75
2022-08-19T04:45:56.469Z,68.78
2022-08-19T04:47:11.195Z,65.65
2022-08-19T04:48:26.601Z,69.75
2022-08-19T04:49:31.062Z,61.15
2022-08-19T04:50:33.971Z,53.65
2022-08-19T04:51:42.103Z,54.47
2022-08-19T04:52:44.300Z,44.35
2022-08-19T04:53:47.562Z,49.60
2022-08-19T04:54:49.753Z,48.78
2022-08-19T04:55:53.576Z,38.75
2022-08-19T04:56:55.726Z,39.58
2022-08-19T04:57:58.927Z,42.35
2022-08-19T04:59:04.427Z,40.22
2022-08-19T05:00:09.398Z,41.35
2022-08-19T05:01:14.328Z,34.72
2022-08-19T05:02:17.620Z,36.47
2022-08-19T05:03:20.351Z,32.88
2022-08-19T05:04:23.585Z,40.08
2022-08-19T05:05:25.732Z,36.78
2022-08-19T05:06:34.684Z,39.35
2022-08-19T05:07:37.718Z,34.85
2022-08-19T05:08:44.141Z,31.42
2022-08-19T05:09:58.170Z,30.45
2022-08-19T05:11:01.285Z,34.08
2022-08-19T05:12:05.095Z,33.97
2022-08-19T05:13:07.356Z,30.40
2022-08-19T05:14:13.421Z,39.22
2022-08-19T05:15:15.612Z,34.85
2022-08-19T05:16:21.560Z,33.65
2022-08-19T05:17:27.571Z,31.45
2022-08-19T05:18:49.921Z,30.10
2022-08-19T05:20:10.725Z,33.60
2022-08-19T05:22:36.688Z,35.85
2022-08-19T05:23:38.990Z,36.35
2022-08-19T05:25:02.446Z,31.88
2022-08-19T05:26:05.755Z,27.88
2022-08-19T05:27:08.000Z,29.38
2022-08-19T05:28:11.259Z,34.03
2022-08-19T05:29:16.776Z,37.15
2022-08-19T05:30:42.184Z,31.63
2022-08-19T05:31:44.090Z,39.00
2022-08-19T05:32:47.295Z,32.97
2022-08-19T05:33:49.828Z,30.98
2022-08-19T05:34:52.979Z,41.28
2022-08-19T05:35:55.287Z,28.83
2022-08-19T05:37:00.479Z,30.42
2022-08-19T05:38:02.604Z,34.85
2022-08-19T05:39:06.190Z,28.58
2022-08-19T05:40:10.011Z,32.97
2022-08-19T05:41:15.315Z,36.47
2022-08-19T05:42:17.548Z,27.13
2022-08-19T05:43:20.847Z,29.88
2022-08-19T05:44:25.845Z,30.05
2022-08-19T05:45:29.039Z,39.67
2022-08-19T05:46:31.228Z,29.75
2022-08-19T05:47:34.534Z,29.10
2022-08-19T05:48:37.192Z,31.65
2022-08-19T05:49:40.465Z,35.58
2022-08-19T05:50:43.290Z,27.50
2022-08-19T05:51:46.651Z,34.38
2022-08-19T05:52:50.194Z,30.80
2022-08-19T05:53:53.915Z,34.00
2022-08-19T05:54:57.260Z,33.78
2022-08-19T05:55:59.481Z,31.33
2022-08-19T05:57:03.902Z,39.03
2022-08-19T05:58:08.515Z,38.58
2022-08-19T05:59:13.013Z,33.53
2022-08-19T06:00:22.664Z,33.08
2022-08-19T06:01:27.789Z,38.15
2022-08-19T06:02:32.430Z,32.08
2022-08-19T06:03:35.393Z,34.53
2022-08-19T06:04:38.751Z,29.77
2022-08-19T06:05:49.724Z,30.13
2022-08-19T06:06:57.293Z,31.05
2022-08-19T06:07:59.816Z,37.88
2022-08-19T06:09:03.557Z,37.47
2022-08-19T06:10:09.513Z,30.88
2022-08-19T06:11:17.819Z,31.83
2022-08-19T06:12:21.127Z,32.80
2022-08-19T06:13:24.830Z,30.80
2022-08-19T06:14:30.635Z,36.33
2022-08-19T06:15:36.995Z,34.92
2022-08-19T06:16:42.918Z,30.25
2022-08-19T06:17:45.498Z,35.58
2022-08-19T06:18:49.381Z,30.25
2022-08-19T06:19:51.655Z,35.58
2022-08-19T06:20:56.071Z,30.25
2022-08-19T06:22:01.129Z,36.53
2022-08-19T06:23:04.787Z,32.88
2022-08-19T06:24:10.241Z,35.72
2022-08-19T06:25:13.858Z,34.40
2022-08-19T06:26:17.843Z,29.63
2022-08-19T06:27:21.231Z,33.33
2022-08-19T06:28:24.685Z,42.05
2022-08-19T06:29:29.037Z,29.70
2022-08-19T06:30:31.250Z,33.83
2022-08-19T06:31:37.852Z,38.50
2022-08-19T06:32:42.917Z,35.78
2022-08-19T06:33:47.462Z,38.60
2022-08-19T06:34:53.400Z,34.08
2022-08-19T06:35:55.556Z,30.42
2022-08-19T06:37:02.083Z,29.95
2022-08-19T06:38:06.008Z,29.60
2022-08-19T06:39:10.963Z,31.63
2022-08-19T06:40:14.621Z,29.63
2022-08-19T06:41:16.825Z,33.08
2022-08-19T06:42:21.651Z,30.92
2022-08-19T06:43:29.106Z,28.92
2022-08-19T06:44:35.423Z,35.67
2022-08-19T06:45:45.684Z,28.25
2022-08-19T06:46:54.574Z,33.97
2022-08-19T06:47:58.387Z,28.20
2022-08-19T06:49:01.142Z,30.38
2022-08-19T06:50:05.757Z,26.65
2022-08-19T06:51:08.728Z,27.98
2022-08-19T06:52:14.221Z,31.40
2022-08-19T06:53:16.388Z,30.63
2022-08-19T06:54:20.847Z,25.42
2022-08-19T06:55:22.997Z,28.80
2022-08-19T06:56:32.070Z,29.35
2022-08-19T06:57:35.070Z,26.38
2022-08-19T06:58:39.194Z,26.55
2022-08-19T06:59:41.820Z,30.63
2022-08-19T07:00:44.948Z,34.88
2022-08-19T07:01:50.653Z,25.60
2022-08-19T07:03:00.109Z,25.27
2022-08-19T07:04:04.890Z,24.55
2022-08-19T07:05:09.237Z,26.40
2022-08-19T07:06:32.585Z,25.00
2022-08-19T07:07:39.628Z,30.10
2022-08-19T07:08:47.481Z,21.70
2022-08-19T07:09:59.085Z,19.75
2022-08-19T07:11:03.289Z,20.05
2022-08-19T07:12:16.268Z,24.13
2022-08-19T07:13:20.243Z,20.00
2022-08-19T07:14:27.292Z,21.27
2022-08-19T07:15:29.577Z,21.27
2022-08-19T07:16:32.866Z,19.58
2022-08-19T07:17:36.516Z,25.27
2022-08-19T07:18:45.337Z,19.70
2022-08-19T07:19:50.069Z,20.20
2022-08-19T07:20:53.573Z,21.45
2022-08-19T07:21:57.388Z,18.27
2022-08-19T07:22:59.565Z,17.70
2022-08-19T07:24:05.354Z,21.27
2022-08-19T07:25:10.304Z,16.55
2022-08-19T07:26:16.735Z,19.55
2022-08-19T07:27:24.512Z,19.67
2022-08-19T07:28:28.363Z,16.98
2022-08-19T07:29:34.362Z,17.83
2022-08-19T07:30:41.744Z,14.60
2022-08-19T07:31:46.095Z,19.38
2022-08-19T07:32:50.592Z,15.48
2022-08-19T07:33:56.308Z,12.52
2022-08-19T07:35:01.396Z,14.05
2022-08-19T07:36:05.268Z,13.90
2022-08-19T07:37:08.934Z,12.73
2022-08-19T07:38:11.341Z,16.83
2022-08-19T07:39:19.813Z,13.50
2022-08-19T07:40:22.338Z,11.50
2022-08-19T07:41:29.444Z,18.30
2022-08-19T07:42:31.878Z,14.82
2022-08-19T07:43:35.367Z,12.05
2022-08-19T07:45:41.540Z,12.77
2022-08-19T07:46:48.245Z,18.08
2022-08-19T07:47:53.900Z,10.63
2022-08-19T07:48:57.402Z,14.60
2022-08-19T07:50:00.551Z,14.27
2022-08-19T07:51:07.787Z,15.38
2022-08-19T07:52:11.776Z,12.43
2022-08-19T07:53:14.206Z,11.63
2022-08-19T07:54:17.583Z,13.20
2022-08-19T07:55:41.202Z,14.82
2022-08-19T07:56:46.186Z,12.73
2022-08-19T07:57:48.321Z,13.63
2022-08-19T07:58:53.780Z,17.35
2022-08-19T07:59:55.901Z,13.05
2022-08-19T08:00:59.024Z,14.90
2022-08-19T08:02:03.329Z,20.27
2022-08-19T08:03:05.649Z,11.13
2022-08-19T08:04:27.943Z,15.45
2022-08-19T08:05:48.717Z,15.30
2022-08-19T08:07:09.428Z,13.38
2022-08-19T08:08:44.116Z,14.23
2022-08-19T08:09:50.567Z,16.38
2022-08-19T08:10:53.067Z,13.35
2022-08-19T08:12:04.991Z,18.52
2022-08-19T08:13:10.102Z,16.08
2022-08-19T08:14:29.399Z,15.43
2022-08-19T08:15:42.222Z,20.42
2022-08-19T08:16:47.347Z,17.00
2022-08-19T08:17:51.569Z,23.98
2022-08-19T08:18:54.056Z,24.80
2022-08-19T08:19:58.646Z,20.55
2022-08-19T08:21:01.027Z,21.77
2022-08-19T08:22:06.886Z,20.00
2022-08-19T08:23:25.789Z,21.40
2022-08-19T08:24:31.733Z,25.73
2022-08-19T08:25:36.374Z,20.83
2022-08-19T08:26:39.566Z,19.00
2022-08-19T08:27:53.056Z,25.52
2022-08-19T08:28:57.591Z,18.75
2022-08-19T08:29:59.710Z,19.65
2022-08-19T08:31:09.651Z,24.30
2022-08-19T08:32:14.135Z,17.88
2022-08-19T08:33:34.185Z,20.38
2022-08-19T08:34:38.328Z,24.00
2022-08-19T08:35:43.213Z,16.95
2022-08-19T08:36:48.131Z,16.63
2022-08-19T08:37:53.590Z,18.98
2022-08-19T08:40:03.305Z,17.50
2022-08-19T08:41:11.574Z,20.48
2022-08-19T08:42:20.807Z,20.33
2022-08-19T08:43:32.458Z,17.02
2022-08-19T08:44:45.023Z,17.13
2022-08-19T08:45:53.455Z,17.45
2022-08-19T08:47:02.086Z,18.98
2022-08-19T08:48:21.879Z,22.30
2022-08-19T08:49:35.654Z,21.85
2022-08-19T08:50:44.536Z,23.02
2022-08-19T08:51:59.557Z,18.15
2022-08-19T08:53:06.223Z,23.48
2022-08-19T08:54:13.011Z,27.17
2022-08-19T08:55:17.795Z,21.33
2022-08-19T08:56:23.567Z,16.83
2022-08-19T08:57:36.953Z,26.75
2022-08-19T08:58:54.799Z,20.70
2022-08-19T08:59:58.937Z,24.65
2022-08-19T09:01:02.123Z,17.52
2022-08-19T09:02:05.432Z,19.60
2022-08-19T09:03:20.220Z,20.67
2022-08-19T09:04:26.553Z,21.40
2022-08-19T09:05:48.344Z,20.88
2022-08-19T09:06:59.264Z,18.38
2022-08-19T09:08:06.040Z,21.13
2022-08-19T09:09:18.153Z,18.75
2022-08-19T09:10:29.377Z,14.65
2022-08-19T09:11:46.461Z,16.48
2022-08-19T09:12:59.065Z,15.82
2022-08-19T09:14:34.963Z,17.55
2022-08-19T09:15:40.739Z,14.82
2022-08-19T09:16:42.844Z,19.65
2022-08-19T09:17:50.168Z,15.68
2022-08-19T09:18:55.781Z,17.50
2022-08-19T09:20:01.919Z,16.33
2022-08-19T09:21:04.178Z,14.48
2022-08-19T09:22:08.694Z,17.33
2022-08-19T09:23:13.842Z,19.33
2022-08-19T09:24:15.921Z,16.27
2022-08-19T09:25:26.787Z,18.42
2022-08-19T09:26:48.304Z,22.27
2022-08-19T09:28:01.174Z,22.70
2022-08-19T09:29:06.503Z,19.65
2022-08-19T09:30:11.144Z,18.52
2022-08-19T09:31:15.397Z,19.30
2022-08-19T09:32:26.697Z,23.15
2022-08-19T09:33:30.287Z,20.60
2022-08-19T09:34:33.269Z,18.35
2022-08-19T09:35:49.447Z,21.58
2022-08-19T09:36:54.556Z,25.40
2022-08-19T09:37:59.471Z,24.73
2022-08-19T09:39:03.029Z,28.30
2022-08-19T09:40:07.307Z,23.85
2022-08-19T09:41:15.889Z,20.40
2022-08-19T09:42:30.430Z,24.52
2022-08-19T09:43:44.491Z,27.40
2022-08-19T09:44:47.806Z,19.90
2022-08-19T09:45:50.896Z,18.73
2022-08-19T09:46:53.025Z,26.67
2022-08-19T09:47:56.520Z,24.10
2022-08-19T09:49:06.169Z,21.35
2022-08-19T09:50:12.500Z,26.58
2022-08-19T09:51:22.250Z,25.27
2022-08-19T09:52:25.531Z,23.88
2022-08-19T09:53:37.590Z,23.65
2022-08-19T09:54:41.307Z,24.38
2022-08-19T09:55:46.394Z,27.90
2022-08-19T09:56:52.583Z,26.17
2022-08-19T09:57:55.266Z,28.75
2022-08-19T09:59:00.746Z,28.25
2022-08-19T10:00:04.651Z,26.88
2022-08-19T10:01:11.442Z,29.63
2022-08-19T10:02:14.199Z,26.08
2022-08-19T10:03:29.943Z,29.90
2022-08-19T10:04:54.947Z,27.48
2022-08-19T10:05:59.768Z,31.48
2022-08-19T10:07:02.574Z,27.98
2022-08-19T10:08:13.111Z,28.05
2022-08-19T10:09:26.438Z,37.72
2022-08-19T10:10:38.317Z,28.98
2022-08-19T10:11:54.621Z,29.08
2022-08-19T10:12:57.293Z,27.00
2022-08-19T10:14:00.828Z,31.50
2022-08-19T10:15:03.362Z,27.98
2022-08-19T10:16:10.103Z,29.50
2022-08-19T10:17:19.300Z,34.90
2022-08-19T10:18:26.460Z,29.58
2022-08-19T10:19:33.279Z,25.38
2022-08-19T10:20:36.542Z,28.75
2022-08-19T10:21:41.379Z,26.90
2022-08-19T10:22:44.516Z,27.50
2022-08-19T10:23:50.155Z,29.63
2022-08-19T10:24:57.474Z,26.95
2022-08-19T10:26:01.511Z,30.33
2022-08-19T10:27:06.850Z,29.27
2022-08-19T10:28:13.020Z,26.85
2022-08-19T10:29:32.134Z,32.25
2022-08-19T10:30:37.870Z,28.70
2022-08-19T10:32:00.569Z,33.67
2022-08-19T10:33:08.295Z,29.98
2022-08-19T10:34:17.590Z,28.92
2022-08-19T10:35:30.461Z,26.00
2022-08-19T10:36:36.213Z,32.58
2022-08-19T10:38:00.276Z,28.98
2022-08-19T10:39:09.826Z,35.53
2022-08-19T10:40:15.019Z,29.95
2022-08-19T10:41:19.531Z,26.50
2022-08-19T10:42:22.664Z,30.13
2022-08-19T10:43:25.921Z,30.40
2022-08-19T10:44:32.532Z,29.60
2022-08-19T10:45:36.102Z,28.70
2022-08-19T10:46:45.141Z,28.65
2022-08-19T10:47:51.542Z,30.08
2022-08-19T10:48:55.177Z,34.85
2022-08-19T10:50:15.781Z,32.95
2022-08-19T10:51:37.177Z,30.23
2022-08-19T10:52:53.250Z,33.55
2022-08-19T10:54:00.542Z,29.27
2022-08-19T10:55:22.034Z,30.77
2022-08-19T10:56:53.254Z,31.23
2022-08-19T10:58:03.634Z,29.55
2022-08-19T10:59:06.000Z,29.83
2022-08-19T11:00:10.371Z,26.13
2022-08-19T11:01:12.582Z,28.98
2022-08-19T11:02:15.872Z,32.72
2022-08-19T11:03:17.993Z,26.70
2022-08-19T11:04:21.824Z,28.77
2022-08-19T11:05:40.097Z,27.85
2022-08-19T11:06:44.627Z,27.20
2022-08-19T11:07:47.044Z,27.55
2022-08-19T11:08:50.260Z,25.65
2022-08-19T11:09:52.532Z,23.38
2022-08-19T11:11:01.739Z,25.23
2022-08-19T11:12:06.058Z,26.48
2022-08-19T11:13:09.277Z,24.60
2022-08-19T11:14:15.081Z,26.80
2022-08-19T11:15:17.332Z,24.52
2022-08-19T11:16:23.369Z,21.85
2022-08-19T11:17:25.602Z,21.15
2022-08-19T11:18:28.914Z,21.02
2022-08-19T11:19:32.092Z,24.20
2022-08-19T11:20:35.232Z,21.63
2022-08-19T11:21:41.782Z,24.90
2022-08-19T11:22:43.965Z,25.38
2022-08-19T11:23:48.755Z,17.33
2022-08-19T11:24:50.884Z,23.05
2022-08-19T11:25:54.185Z,22.88
2022-08-19T11:27:05.472Z,21.98
2022-08-19T11:28:08.996Z,22.73
2022-08-19T11:29:14.280Z,22.38
2022-08-19T11:30:17.653Z,20.73
2022-08-19T11:31:23.078Z,21.52
2022-08-19T11:32:28.397Z,21.63
2022-08-19T11:33:31.021Z,21.75
2022-08-19T11:34:34.096Z,22.30
2022-08-19T11:35:40.273Z,21.80
2022-08-19T11:36:45.108Z,21.10
2022-08-19T11:37:47.233Z,18.20
2022-08-19T11:38:51.468Z,23.65
2022-08-19T11:39:54.484Z,21.85
2022-08-19T11:40:58.796Z,18.90
2022-08-19T11:42:03.407Z,18.45
2022-08-19T11:43:07.154Z,21.55
2022-08-19T11:44:12.123Z,18.55
2022-08-19T11:45:15.141Z,17.95
2022-08-19T11:46:18.786Z,18.15
2022-08-19T11:47:20.976Z,17.70
2022-08-19T11:48:25.865Z,19.83
2022-08-19T11:49:27.997Z,17.80
2022-08-19T11:50:31.833Z,21.35
2022-08-19T11:51:34.746Z,17.23
2022-08-19T11:52:38.178Z,18.75
2022-08-19T11:53:40.870Z,18.40
2022-08-19T11:54:43.989Z,17.13
2022-08-19T11:55:46.326Z,19.15
2022-08-19T11:56:50.066Z,17.13
2022-08-19T11:57:53.420Z,18.35
2022-08-19T11:58:57.722Z,17.38
2022-08-19T12:00:02.574Z,22.83
2022-08-19T12:01:07.967Z,18.70
2022-08-19T12:02:11.746Z,16.95
2022-08-19T12:03:14.735Z,17.95
2022-08-19T12:04:17.966Z,17.55
2022-08-19T12:05:20.692Z,19.45
2022-08-19T12:06:29.344Z,20.77
2022-08-19T12:07:32.613Z,18.02
2022-08-19T12:08:35.812Z,15.13
2022-08-19T12:09:42.866Z,16.70
2022-08-19T12:10:46.441Z,17.67
2022-08-19T12:11:48.548Z,17.13
2022-08-19T12:12:56.402Z,17.40
2022-08-19T12:14:01.197Z,17.05
2022-08-19T12:15:06.544Z,16.52
2022-08-19T12:16:12.506Z,16.80
2022-08-19T12:17:15.604Z,16.13
2022-08-19T12:18:18.729Z,16.25
2022-08-19T12:19:22.140Z,17.95
2022-08-19T12:20:27.250Z,18.55
2022-08-19T12:21:29.552Z,15.30
2022-08-19T12:22:32.678Z,18.33
2022-08-19T12:23:34.925Z,18.35
2022-08-19T12:24:38.069Z,17.17
2022-08-19T12:25:49.399Z,17.13
2022-08-19T12:26:54.017Z,16.70
2022-08-19T12:27:57.422Z,19.65
2022-08-19T12:29:01.529Z,17.50
2022-08-19T12:30:07.101Z,18.15
2022-08-19T12:31:12.984Z,17.55
2022-08-19T12:32:15.804Z,17.38
2022-08-19T12:33:19.253Z,16.23
2022-08-19T12:34:21.605Z,16.92
2022-08-19T12:35:24.722Z,19.17
2022-08-19T12:36:27.050Z,16.17
2022-08-19T12:37:32.631Z,14.55
2022-08-19T12:38:36.711Z,17.08
2022-08-19T12:39:43.247Z,14.30
2022-08-19T12:40:47.366Z,14.25
2022-08-19T12:41:54.318Z,13.40
2022-08-19T12:42:57.295Z,14.90
2022-08-19T12:44:01.039Z,13.80
2022-08-19T12:45:06.563Z,14.15
2022-08-19T12:46:12.794Z,12.63
2022-08-19T12:47:17.160Z,14.45
2022-08-19T12:48:34.536Z,13.27
2022-08-19T12:49:53.186Z,13.75
2022-08-19T12:50:57.727Z,13.98
2022-08-19T12:52:01.324Z,15.68
2022-08-19T12:53:03.469Z,15.35
2022-08-19T12:54:07.525Z,13.05
2022-08-19T12:55:11.603Z,13.68
2022-08-19T12:56:15.721Z,15.02
2022-08-19T12:57:18.929Z,16.45
2022-08-19T12:58:24.251Z,12.20
2022-08-19T12:59:30.458Z,15.80
2022-08-19T13:00:34.058Z,13.50
2022-08-19T13:01:37.231Z,16.67
2022-08-19T13:02:40.286Z,13.27
2022-08-19T13:03:44.153Z,13.90
2022-08-19T13:04:46.460Z,14.45
2022-08-19T13:05:51.396Z,13.43
2022-08-19T13:06:53.501Z,17.23
2022-08-19T13:08:00.596Z,14.48
2022-08-19T13:09:02.902Z,17.02
2022-08-19T13:10:07.200Z,15.98
2022-08-19T13:11:13.269Z,17.25
2022-08-19T13:12:15.365Z,14.02
2022-08-19T13:13:19.030Z,14.65
2022-08-19T13:14:22.222Z,13.32
2022-08-19T13:15:25.464Z,14.30
2022-08-19T13:16:30.205Z,14.60
2022-08-19T13:17:34.464Z,13.88
2022-08-19T13:18:37.728Z,14.02
2022-08-19T13:19:41.062Z,12.55
2022-08-19T13:20:52.417Z,18.75
2022-08-19T13:22:00.045Z,15.15
2022-08-19T13:23:03.567Z,16.77
2022-08-19T13:24:07.217Z,19.77
2022-08-19T13:25:10.323Z,14.70
2022-08-19T13:26:14.552Z,16.48
2022-08-19T13:27:17.717Z,15.50
2022-08-19T13:28:19.863Z,14.27
2022-08-19T13:29:43.259Z,11.77
2022-08-19T13:32:33.669Z,13.85
2022-08-19T13:33:38.651Z,12.70
2022-08-19T13:34:40.736Z,13.95
2022-08-19T13:35:47.735Z,12.93
2022-08-19T13:36:49.935Z,12.43
2022-08-19T13:37:53.390Z,16.17
2022-08-19T13:38:55.757Z,14.95
2022-08-19T13:40:00.079Z,14.52
2022-08-19T13:41:10.963Z,13.02
2022-08-19T13:42:14.945Z,17.48
2022-08-19T13:43:23.279Z,14.48
2022-08-19T13:44:27.402Z,16.40
2022-08-19T13:45:30.973Z,13.93
2022-08-19T13:46:34.086Z,14.13
2022-08-19T13:47:40.086Z,12.23
2022-08-19T13:48:43.760Z,16.02
2022-08-19T13:49:45.965Z,16.65
2022-08-19T13:50:49.348Z,17.92
2022-08-19T13:51:51.510Z,16.98
2022-08-19T13:52:55.197Z,14.95
2022-08-19T13:53:58.351Z,15.65
2022-08-19T13:55:00.504Z,16.50
2022-08-19T13:56:08.096Z,14.93
2022-08-19T13:57:10.284Z,15.45
2022-08-19T13:58:14.406Z,15.45
2022-08-19T13:59:16.631Z,16.73
2022-08-19T14:00:22.011Z,14.30
2022-08-19T14:01:25.825Z,16.60
2022-08-19T14:02:29.044Z,16.30
2022-08-19T14:03:33.869Z,16.67
2022-08-19T14:04:38.284Z,18.05
2022-08-19T14:05:40.730Z,19.90
2022-08-19T14:06:43.959Z,19.08
2022-08-19T14:07:46.446Z,17.85
2022-08-19T14:08:49.640Z,19.33
2022-08-19T14:09:51.848Z,18.80
2022-08-19T14:10:55.134Z,16.95
2022-08-19T14:11:57.337Z,15.75
2022-08-19T14:13:02.427Z,16.90